Waterloo, Alabama
Current Conditions -  °F | °C
As of 5:55 AM on Monday 22 Dec 2014 (Local Time) from KSNH Reporting Station
Overcast Overcast  
Wind Chill: 45°   Ceiling: 3000
Heat Index: 48°   Visibility: 10mi
Dew Point: 48°   Wind: 8mph
Humidity: 100%   Direction: 160°SSE
Pressure: 29.9"   Gusts: NA
Location:  34.92°N, 88.06°W
Report Text: KSNH 221155Z AUTO 16007KT 10SM FEW012 OVC030 09/09 A2990 RMK
Loading
Personal Weather Stations






























Interactive Weather Map New forecast layout! Learn more

10-Day Weather Forecast

Advertisements
Track Severe Weather on mobile